createdAt,value
2022-11-02T00:04:15.815Z,8.3
2022-11-02T00:09:15.866Z,8.3
2022-11-02T00:14:15.741Z,8.3
2022-11-02T00:19:15.697Z,8.3
2022-11-02T00:24:15.140Z,8.4
2022-11-02T00:29:15.187Z,8.4
2022-11-02T00:34:15.278Z,8.4
2022-11-02T00:39:15.307Z,8.4
2022-11-02T00:44:15.029Z,8.4
2022-11-02T00:49:15.376Z,8.4
2022-11-02T00:54:23.215Z,8.6
2022-11-02T00:59:15.705Z,8.6
2022-11-02T01:04:15.138Z,8.6
2022-11-02T01:09:15.531Z,8.6
2022-11-02T01:14:18.678Z,8.7
2022-11-02T01:19:15.823Z,8.7
2022-11-02T01:24:15.195Z,8.7
2022-11-02T01:29:15.335Z,8.7
2022-11-02T01:34:15.032Z,8.8
2022-11-02T01:39:15.318Z,8.8
2022-11-02T01:44:15.124Z,8.8
2022-11-02T01:49:15.188Z,8.8
2022-11-02T01:54:15.387Z,8.9
2022-11-02T01:59:15.528Z,8.9
2022-11-02T02:04:15.991Z,9.1
2022-11-02T02:09:15.185Z,9.1
2022-11-02T02:14:15.589Z,9.1
2022-11-02T02:19:15.463Z,9.1
2022-11-02T02:24:15.182Z,9.2
2022-11-02T02:29:15.222Z,9.2
2022-11-02T02:34:15.592Z,9.3
2022-11-02T02:39:15.091Z,9.3
2022-11-02T02:44:15.453Z,9.4
2022-11-02T02:49:15.496Z,9.4
2022-11-02T02:54:15.838Z,9.5
2022-11-02T02:59:15.213Z,9.5
2022-11-02T03:04:16.077Z,9.6
2022-11-02T03:09:15.551Z,9.6
2022-11-02T03:14:15.033Z,9.7
2022-11-02T03:19:15.877Z,9.7
2022-11-02T03:24:15.641Z,9.8
2022-11-02T03:29:15.834Z,9.8
2022-11-02T03:34:15.967Z,9.9
2022-11-02T03:39:15.464Z,9.9
2022-11-02T03:44:15.438Z,10.1
2022-11-02T03:49:15.462Z,10.1
2022-11-02T03:54:15.835Z,10.2
2022-11-02T03:59:15.359Z,10.2
2022-11-02T04:04:15.485Z,10.2
2022-11-02T04:09:15.619Z,10.2
2022-11-02T04:14:16.168Z,10.2
2022-11-02T04:19:15.366Z,10.2
2022-11-02T04:24:15.774Z,10.2
2022-11-02T04:29:15.880Z,10.2
2022-11-02T04:34:15.747Z,10.2
2022-11-02T04:39:15.658Z,10.2
2022-11-02T04:44:15.974Z,10.1
2022-11-02T04:49:15.335Z,10.1
2022-11-02T04:54:15.499Z,10.1
2022-11-02T04:59:15.811Z,10.1
2022-11-02T05:04:16.022Z,10
2022-11-02T05:09:15.419Z,10
2022-11-02T05:14:15.717Z,9.9
2022-11-02T05:19:15.265Z,9.9
2022-11-02T05:24:15.997Z,9.9
2022-11-02T05:29:15.331Z,9.9
2022-11-02T05:34:15.567Z,9.8
2022-11-02T05:39:15.674Z,9.8
2022-11-02T05:44:15.839Z,9.9
2022-11-02T05:49:16.110Z,9.9
2022-11-02T05:54:15.715Z,9.9
2022-11-02T05:59:15.959Z,9.9
2022-11-02T06:04:16.272Z,9.9
2022-11-02T06:09:15.704Z,9.9
2022-11-02T06:14:16.183Z,9.9
2022-11-02T06:19:48.698Z,9.9
2022-11-02T06:24:15.999Z,9.9
2022-11-02T06:29:15.389Z,9.9
2022-11-02T06:34:15.468Z,9.9
2022-11-02T06:39:15.479Z,9.9
2022-11-02T06:44:15.821Z,9.9
2022-11-02T06:49:15.876Z,9.9
2022-11-02T06:54:16.182Z,10.1
2022-11-02T06:59:15.452Z,10.1
2022-11-02T07:04:15.766Z,10.2
2022-11-02T07:09:16.036Z,10.2
2022-11-02T07:14:15.521Z,10.3
2022-11-02T07:19:15.959Z,10.3
2022-11-02T07:24:15.314Z,10.4
2022-11-02T07:29:15.439Z,10.4
2022-11-02T07:34:16.905Z,10.7
2022-11-02T07:39:16.134Z,10.7
2022-11-02T07:44:15.453Z,10.8
2022-11-02T07:49:21.078Z,10.8
2022-11-02T07:54:15.320Z,11.1
2022-11-02T07:59:15.761Z,11.1
2022-11-02T08:04:16.147Z,11.3
2022-11-02T08:09:15.539Z,11.3
2022-11-02T08:14:15.829Z,11.6
2022-11-02T08:19:16.078Z,11.6
2022-11-02T08:24:15.408Z,11.9
2022-11-02T08:29:15.542Z,11.9
2022-11-02T08:34:16.173Z,12.3
2022-11-02T08:39:18.888Z,12.3
2022-11-02T08:44:15.490Z,12.4
2022-11-02T08:49:15.855Z,12.4
2022-11-02T08:54:15.486Z,12.5
2022-11-02T08:59:16.337Z,12.5
2022-11-02T09:04:16.297Z,12.6
2022-11-02T09:09:15.453Z,12.6
2022-11-02T09:14:16.062Z,12.7
2022-11-02T09:19:15.423Z,12.7
2022-11-02T09:24:15.697Z,12.8
2022-11-02T09:29:16.206Z,12.8
2022-11-02T09:34:15.594Z,13
2022-11-02T09:39:16.065Z,13
2022-11-02T09:44:15.619Z,13.2
2022-11-02T09:49:15.662Z,13.2
2022-11-02T09:54:17.632Z,13.3
2022-11-02T09:59:15.502Z,13.3
2022-11-02T10:04:15.522Z,13.5
2022-11-02T10:09:15.548Z,13.5
2022-11-02T10:14:16.122Z,13.8
2022-11-02T10:19:15.362Z,13.8
2022-11-02T10:24:15.763Z,13.7
2022-11-02T10:29:16.293Z,13.7
2022-11-02T10:34:15.593Z,13.6
2022-11-02T10:39:15.885Z,13.6
2022-11-02T10:44:15.515Z,13.6
2022-11-02T10:49:15.756Z,13.6
2022-11-02T10:54:19.445Z,12.9
2022-11-02T10:59:15.766Z,12.9
2022-11-02T11:04:15.946Z,12.2
2022-11-02T11:09:16.411Z,12.2
2022-11-02T11:19:41.130Z,11.7
2022-11-02T11:24:16.029Z,11.8
2022-11-02T11:29:15.594Z,11.8
2022-11-02T11:34:15.971Z,12.4
2022-11-02T11:39:16.413Z,12.4
2022-11-02T11:44:15.848Z,12.3
2022-11-02T11:49:16.366Z,12.3
2022-11-02T11:54:15.600Z,12.3
2022-11-02T11:59:15.803Z,12.3
2022-11-02T12:04:16.005Z,12.3
2022-11-02T12:09:16.339Z,12.3
2022-11-02T12:14:16.065Z,12.3
2022-11-02T12:19:15.494Z,12.3
2022-11-02T12:24:16.042Z,12.2
2022-11-02T12:29:15.608Z,12.2
2022-11-02T12:34:16.229Z,12.2
2022-11-02T12:39:16.163Z,12.2
2022-11-02T12:44:15.759Z,12.1
2022-11-02T12:49:16.625Z,12.1
2022-11-02T12:54:15.865Z,11.8
2022-11-02T12:59:16.044Z,11.8
2022-11-02T13:04:16.336Z,12.3
2022-11-02T13:09:15.662Z,12.3
2022-11-02T13:14:16.254Z,12.8
2022-11-02T13:19:16.022Z,12.8
2022-11-02T13:24:16.171Z,13.2
2022-11-02T13:29:16.267Z,13.2
2022-11-02T13:34:15.513Z,13.6
2022-11-02T13:39:16.252Z,13.6
2022-11-02T13:44:15.638Z,13.6
2022-11-02T13:49:16.016Z,13.6
2022-11-02T13:54:16.293Z,13.4
2022-11-02T13:59:15.583Z,13.4
2022-11-02T14:04:16.403Z,13.2
2022-11-02T14:09:15.726Z,13.2
2022-11-02T14:14:16.015Z,13
2022-11-02T14:19:19.159Z,13
2022-11-02T14:24:16.062Z,12.8
2022-11-02T14:29:16.241Z,12.8
2022-11-02T14:34:16.041Z,12.7
2022-11-02T14:39:15.978Z,12.7
2022-11-02T14:44:15.569Z,12.6
2022-11-02T14:49:15.896Z,12.6
2022-11-02T14:54:16.110Z,12.4
2022-11-02T14:59:16.088Z,12.4
2022-11-02T15:04:16.269Z,12.2
2022-11-02T15:09:15.928Z,12.2
2022-11-02T15:14:16.176Z,12.2
2022-11-02T15:19:15.642Z,12.2
2022-11-02T15:24:17.331Z,12.2
2022-11-02T15:29:16.131Z,12.2
2022-11-02T15:34:16.351Z,12.1
2022-11-02T15:39:16.489Z,12.1
2022-11-02T15:44:16.214Z,11.9
2022-11-02T15:49:16.073Z,11.9
2022-11-02T15:54:15.873Z,11.8
2022-11-02T15:59:16.244Z,11.8
2022-11-02T16:04:16.000Z,11.6
2022-11-02T16:09:15.956Z,11.6
2022-11-02T16:14:16.254Z,11.4
2022-11-02T16:19:15.555Z,11.4
2022-11-02T16:24:16.029Z,11.3
2022-11-02T16:29:16.479Z,11.3
2022-11-02T16:34:15.842Z,11.1
2022-11-02T16:39:16.422Z,11.1
2022-11-02T16:44:16.324Z,10.9
2022-11-02T16:49:15.664Z,10.9
2022-11-02T16:54:16.006Z,10.8
2022-11-02T16:59:15.610Z,10.8
2022-11-02T17:04:16.080Z,10.6
2022-11-02T17:09:16.429Z,10.6
2022-11-02T17:14:15.864Z,10.3
2022-11-02T17:19:15.977Z,10.3
2022-11-02T17:24:16.323Z,10.1
2022-11-02T17:29:15.711Z,10.1
2022-11-02T17:34:15.983Z,9.8
2022-11-02T17:39:15.916Z,9.8
2022-11-02T17:44:16.249Z,9.6
2022-11-02T17:49:16.394Z,9.6
2022-11-02T17:54:16.584Z,9.3
2022-11-02T17:59:15.770Z,9.3
2022-11-02T18:04:16.610Z,9.1
2022-11-02T18:09:15.762Z,9.1
2022-11-02T18:14:15.990Z,8.8
2022-11-02T18:19:16.303Z,8.8
2022-11-02T18:24:16.700Z,8.7
2022-11-02T18:29:15.895Z,8.7
2022-11-02T18:34:16.292Z,8.4
2022-11-02T18:39:16.144Z,8.4
2022-11-02T18:44:16.216Z,8.2
2022-11-02T18:49:16.323Z,8.2
2022-11-02T18:54:16.568Z,8
2022-11-02T18:59:15.872Z,8
2022-11-02T19:04:17.362Z,7.8
2022-11-02T19:09:16.285Z,7.8
2022-11-02T19:14:16.542Z,7.6
2022-11-02T19:19:15.718Z,7.6
2022-11-02T19:24:16.416Z,7.4
2022-11-02T19:29:16.641Z,7.4
2022-11-02T19:34:15.914Z,7.2
2022-11-02T19:39:15.835Z,7.2
2022-11-02T19:44:16.080Z,7
2022-11-02T19:49:16.224Z,7
2022-11-02T19:54:16.614Z,6.8
2022-11-02T19:59:15.903Z,6.8
2022-11-02T20:04:16.144Z,6.7
2022-11-02T20:09:16.576Z,6.7
2022-11-02T20:14:15.781Z,6.6
2022-11-02T20:19:16.079Z,6.6
2022-11-02T20:24:16.219Z,6.4
2022-11-02T20:29:18.168Z,6.4
2022-11-02T20:34:15.785Z,6.3
2022-11-02T20:39:15.959Z,6.3
2022-11-02T20:44:16.452Z,6.2
2022-11-02T20:49:22.062Z,6.2
2022-11-02T20:54:16.671Z,6.1
2022-11-02T20:59:16.211Z,6.1
2022-11-02T21:04:20.784Z,6
2022-11-02T21:09:16.548Z,6
2022-11-02T21:14:15.997Z,5.9
2022-11-02T21:19:16.264Z,5.9
2022-11-02T21:24:15.915Z,5.9
2022-11-02T21:29:16.156Z,5.9
2022-11-02T21:34:16.400Z,5.9
2022-11-02T21:39:15.724Z,5.9
2022-11-02T21:44:16.431Z,6
2022-11-02T21:49:15.907Z,6
2022-11-02T21:54:16.276Z,6
2022-11-02T21:59:16.490Z,6
2022-11-02T22:04:16.296Z,6
2022-11-02T22:09:16.552Z,6
2022-11-02T22:14:16.036Z,6
2022-11-02T22:19:16.170Z,6
2022-11-02T22:24:16.466Z,5.9
2022-11-02T22:29:15.754Z,5.9
2022-11-02T22:34:15.926Z,5.9
2022-11-02T22:39:15.979Z,5.9
2022-11-02T22:44:16.139Z,5.9
2022-11-02T22:49:16.237Z,5.9
2022-11-02T22:54:16.647Z,5.9
2022-11-02T22:59:16.049Z,5.9
2022-11-02T23:04:16.592Z,5.9
2022-11-02T23:09:15.973Z,5.9
2022-11-02T23:14:15.997Z,5.9
2022-11-02T23:19:18.941Z,5.9
2022-11-02T23:24:16.747Z,5.9
2022-11-02T23:29:15.973Z,5.9
2022-11-02T23:34:16.093Z,5.9
2022-11-02T23:39:16.282Z,5.9
2022-11-02T23:44:16.622Z,5.9
2022-11-02T23:49:16.699Z,5.9
2022-11-02T23:54:15.989Z,5.9
2022-11-02T23:59:16.034Z,5.9
